Kyokuhoumaru No.12 — JL5963 — position and weather

sailwx.info

Track history (hours):
 
Tides and Currents Weather Stations Pressure Air Temp Water Temp Dewpoint Dewpoint Depression Visibility Wind Speed Wind Dir Waves Ship Positions

Kyokuhoumaru No.12

Last reported at 2017-May-20 05:31 UTC. Time now 2017-May-23 12:36 UTC.
Position N 35°20' E 139°42'.

Length 57 m.

Type: Tanker. MMSI: 431500879.

Date/timePositionNaut miles runAvg speedWind from/ knotsBaromVisibWave heightAir tempDewpointWater temp
2017-May-20 05:31N 35°20' E 139°42'0 9.7
2017-May-20 05:30N 35°20' E 139°42'5 9.1
2017-May-20 05:00N 35°25' E 139°43'5 9.4
2017-May-20 04:28N 35°28' E 139°48'10 1.7
2017-May-19 22:35N 35°37' E 139°54'1 1.4
2017-May-19 21:56N 35°36' E 139°53'0 0.0
2017-May-19 21:29N 35°36' E 139°53'0 0.0
2017-May-19 18:23N 35°36' E 139°53'0 0.0
2017-May-19 17:44N 35°36' E 139°53'0 0.0
2017-May-19 16:29N 35°36' E 139°53'0 0.0
2017-May-19 15:41N 35°36' E 139°53'0 0.0
2017-May-19 15:11N 35°36' E 139°53'0 0.0
2017-May-19 01:59N 35°36' E 139°53'14 1.1
2017-May-18 13:10N 35°24' E 139°46'2 9.1
2017-May-18 12:55N 35°22' E 139°45'221 5.7
2017-May-16 22:23N 34°33' E 135°22'2 0.3
2017-May-16 15:16N 34°32' E 135°20'0 0.0
2017-May-16 13:58N 34°32' E 135°20'0 0.0
2017-May-16 13:28N 34°32' E 135°20'4 6.7
2017-May-16 12:50N 34°33' E 135°15'3 9.6
2017-May-16 12:30N 34°34' E 135°11'510.1
2017-May-16 11:59N 34°35' E 135°05'  
Track history (hours):
 
Tides and Currents Weather Stations Pressure Air Temp Water Temp Dewpoint Dewpoint Depression Visibility Wind Speed Wind Dir Waves Ship Positions

Kyokuhoumaru No.12

Last reported at 2017-May-20 05:31 UTC. Time now 2017-May-23 12:36 UTC.
Position N 35°20' E 139°42'.

Length 57 m.

Type: Tanker. MMSI: 431500879.

Date/timePositionNaut miles runAvg speedWind from/ knotsBaromVisibWave heightAir tempDewpointWater temp
2017-May-20 05:31N 35°20' E 139°42'0 9.7
2017-May-20 05:30N 35°20' E 139°42'5 9.1
2017-May-20 05:00N 35°25' E 139°43'5 9.4
2017-May-20 04:28N 35°28' E 139°48'10 1.7
2017-May-19 22:35N 35°37' E 139°54'1 1.4
2017-May-19 21:56N 35°36' E 139°53'0 0.0
2017-May-19 21:29N 35°36' E 139°53'0 0.0
2017-May-19 18:23N 35°36' E 139°53'0 0.0
2017-May-19 17:44N 35°36' E 139°53'0 0.0
2017-May-19 16:29N 35°36' E 139°53'0 0.0
2017-May-19 15:41N 35°36' E 139°53'0 0.0
2017-May-19 15:11N 35°36' E 139°53'0 0.0
2017-May-19 01:59N 35°36' E 139°53'14 1.1
2017-May-18 13:10N 35°24' E 139°46'2 9.1
2017-May-18 12:55N 35°22' E 139°45'221 5.7
2017-May-16 22:23N 34°33' E 135°22'2 0.3
2017-May-16 15:16N 34°32' E 135°20'0 0.0
2017-May-16 13:58N 34°32' E 135°20'0 0.0
2017-May-16 13:28N 34°32' E 135°20'4 6.7
2017-May-16 12:50N 34°33' E 135°15'3 9.6
2017-May-16 12:30N 34°34' E 135°11'510.1
2017-May-16 11:59N 34°35' E 135°05'  

Dump ship's entire track history